Murdock, Nebraska
Current Conditions -  °F | °C
As of 12:55 PM on Sunday 23 Nov 2014 (Local Time) from KPMV Reporting Station
Overcast Overcast  
Wind Chill:   Ceiling: 2400
Heat Index:   Visibility: 10mi
Dew Point:   Wind: 29mph
Humidity: 76%   Direction: 320°NW
Pressure: 29.45"   Gusts: 37mph
Location:  40.93°N, 96.28°W
Report Text: KPMV 231855Z AUTO 32025G32KT 10SM BKN024 OVC040 08/04 A2945 RMK AO2 T00790040
Loading
Personal Weather Stations






























Interactive Weather Map New forecast layout! Learn more

10-Day Weather Forecast

Advertisements
Track Severe Weather on mobile